createdAt,value
2023-05-17T00:02:02.320Z,1.48
2023-05-17T00:04:29.272Z,1.27
2023-05-17T00:06:56.175Z,1.33
2023-05-17T00:09:22.944Z,1.20
2023-05-17T00:11:49.764Z,1.50
2023-05-17T00:14:16.745Z,1.45
2023-05-17T00:16:43.638Z,1.00
2023-05-17T00:19:10.621Z,1.02
2023-05-17T00:21:38.131Z,1.25
2023-05-17T00:24:05.328Z,1.17
2023-05-17T00:26:33.701Z,1.23
2023-05-17T00:29:00.798Z,1.05
2023-05-17T00:31:27.703Z,1.08
2023-05-17T00:33:54.536Z,1.48
2023-05-17T00:36:21.636Z,1.17
2023-05-17T00:38:48.532Z,1.00
2023-05-17T00:41:15.581Z,1.13
2023-05-17T00:43:42.493Z,1.00
2023-05-17T00:46:09.826Z,1.10
2023-05-17T00:48:36.977Z,1.05
2023-05-17T00:51:04.043Z,1.23
2023-05-17T00:53:31.005Z,1.42
2023-05-17T00:55:57.921Z,1.13
2023-05-17T00:58:25.180Z,1.02
2023-05-17T01:00:52.342Z,1.20
2023-05-17T01:03:19.358Z,0.90
2023-05-17T01:05:46.175Z,1.20
2023-05-17T01:08:13.077Z,1.25
2023-05-17T01:11:05.014Z,1.25
2023-05-17T01:13:42.717Z,1.40
2023-05-17T01:16:31.213Z,1.63
2023-05-17T01:19:19.929Z,0.93
2023-05-17T01:21:52.924Z,1.27
2023-05-17T01:24:33.331Z,1.27
2023-05-17T01:27:04.962Z,1.10
2023-05-17T01:29:33.202Z,1.20
2023-05-17T01:32:02.132Z,1.27
2023-05-17T01:34:30.040Z,0.90
2023-05-17T01:36:58.136Z,1.25
2023-05-17T01:39:25.439Z,1.20
2023-05-17T01:42:22.795Z,1.17
2023-05-17T01:45:06.147Z,0.98
2023-05-17T01:47:38.901Z,1.50
2023-05-17T01:50:07.763Z,1.08
2023-05-17T01:52:44.537Z,1.13
2023-05-17T01:55:19.892Z,0.85
2023-05-17T01:57:51.556Z,1.27
2023-05-17T02:00:19.636Z,1.60
2023-05-17T02:02:46.704Z,1.67
2023-05-17T02:05:13.756Z,1.40
2023-05-17T02:07:40.841Z,1.42
2023-05-17T02:10:08.430Z,1.55
2023-05-17T02:12:36.663Z,1.55
2023-05-17T02:15:03.994Z,1.55
2023-05-17T02:17:31.105Z,1.45
2023-05-17T02:19:58.030Z,1.30
2023-05-17T02:22:24.853Z,1.33
2023-05-17T02:24:51.640Z,1.58
2023-05-17T02:27:18.793Z,1.23
2023-05-17T02:29:45.742Z,1.25
2023-05-17T02:32:12.677Z,1.50
2023-05-17T02:34:39.604Z,1.73
2023-05-17T02:37:06.612Z,1.40
2023-05-17T02:39:33.934Z,1.20
2023-05-17T02:42:00.745Z,1.50
2023-05-17T02:44:27.599Z,1.30
2023-05-17T02:46:54.412Z,1.65
2023-05-17T02:49:21.234Z,1.60
2023-05-17T02:51:48.032Z,1.52
2023-05-17T02:54:14.914Z,1.38
2023-05-17T02:56:41.764Z,1.50
2023-05-17T02:59:08.659Z,1.40
2023-05-17T03:01:36.668Z,1.48
2023-05-17T03:04:04.368Z,1.67
2023-05-17T03:06:31.481Z,1.13
2023-05-17T03:08:58.704Z,1.40
2023-05-17T03:11:25.630Z,1.90
2023-05-17T03:13:54.385Z,1.30
2023-05-17T03:16:26.524Z,1.50
2023-05-17T03:18:53.464Z,1.58
2023-05-17T03:21:20.507Z,1.98
2023-05-17T03:23:49.007Z,1.88
2023-05-17T03:26:16.347Z,1.27
2023-05-17T03:28:48.310Z,1.50
2023-05-17T03:31:17.522Z,1.83
2023-05-17T03:33:45.790Z,1.63
2023-05-17T03:36:13.432Z,1.40
2023-05-17T03:38:40.618Z,1.38
2023-05-17T03:41:07.750Z,1.27
2023-05-17T03:43:34.675Z,1.40
2023-05-17T03:46:01.848Z,1.23
2023-05-17T03:48:29.665Z,1.50
2023-05-17T03:50:56.600Z,1.55
2023-05-17T03:53:23.375Z,2.22
2023-05-17T03:55:50.215Z,1.85
2023-05-17T03:58:18.328Z,1.60
2023-05-17T04:00:45.486Z,1.90
2023-05-17T04:03:18.569Z,1.77
2023-05-17T04:05:46.813Z,1.98
2023-05-17T04:08:13.969Z,1.92
2023-05-17T04:10:42.212Z,1.65
2023-05-17T04:13:09.629Z,1.70
2023-05-17T04:15:37.656Z,1.88
2023-05-17T04:18:05.898Z,1.92
2023-05-17T04:20:32.827Z,2.30
2023-05-17T04:23:00.104Z,1.83
2023-05-17T04:25:29.881Z,2.00
2023-05-17T04:27:56.997Z,1.90
2023-05-17T04:30:24.252Z,2.17
2023-05-17T04:32:51.280Z,2.00
2023-05-17T04:35:18.113Z,2.38
2023-05-17T04:37:48.548Z,2.05
2023-05-17T04:40:21.262Z,2.20
2023-05-17T04:42:48.844Z,1.80
2023-05-17T04:45:17.672Z,1.77
2023-05-17T04:47:44.686Z,1.80
2023-05-17T04:50:12.510Z,1.88
2023-05-17T04:52:39.619Z,2.03
2023-05-17T04:55:07.787Z,1.90
2023-05-17T04:57:35.879Z,1.70
2023-05-17T05:00:26.531Z,1.67
2023-05-17T05:02:59.952Z,2.08
2023-05-17T05:05:27.045Z,1.70
2023-05-17T05:07:54.547Z,1.52
2023-05-17T05:10:21.762Z,1.73
2023-05-17T05:12:48.852Z,2.00
2023-05-17T05:15:16.247Z,1.42
2023-05-17T05:17:49.788Z,1.85
2023-05-17T05:20:16.891Z,1.52
2023-05-17T05:22:43.778Z,1.80
2023-05-17T05:25:11.414Z,1.58
2023-05-17T05:27:38.364Z,1.60
2023-05-17T05:30:05.931Z,1.65
2023-05-17T05:32:33.101Z,1.58
2023-05-17T05:34:59.985Z,1.58
2023-05-17T05:37:27.025Z,1.95
2023-05-17T05:39:54.041Z,2.10
2023-05-17T05:42:20.977Z,1.92
2023-05-17T05:44:47.913Z,2.00
2023-05-17T05:47:16.900Z,2.15
2023-05-17T05:49:43.767Z,1.67
2023-05-17T05:52:12.642Z,2.28
2023-05-17T05:54:40.743Z,2.15
2023-05-17T05:57:07.675Z,2.45
2023-05-17T05:59:35.382Z,2.00
2023-05-17T06:02:02.416Z,2.35
2023-05-17T06:04:40.659Z,2.00
2023-05-17T06:07:12.103Z,2.05
2023-05-17T06:09:38.908Z,2.10
2023-05-17T06:12:05.848Z,2.17
2023-05-17T06:14:32.758Z,1.92
2023-05-17T06:16:59.797Z,1.95
2023-05-17T06:19:26.738Z,2.20
2023-05-17T06:21:53.973Z,1.90
2023-05-17T06:24:20.822Z,1.73
2023-05-17T06:26:48.525Z,2.03
2023-05-17T06:29:15.600Z,1.70
2023-05-17T06:31:42.619Z,1.70
2023-05-17T06:34:09.521Z,1.75
2023-05-17T06:36:37.638Z,1.85
2023-05-17T06:39:05.648Z,1.83
2023-05-17T06:41:32.629Z,2.10
2023-05-17T06:43:59.555Z,2.25
2023-05-17T06:46:26.472Z,1.98
2023-05-17T06:48:53.470Z,1.92
2023-05-17T06:51:20.497Z,2.17
2023-05-17T06:53:47.537Z,2.17
2023-05-17T06:56:14.807Z,2.28
2023-05-17T06:58:41.777Z,2.05
2023-05-17T07:01:08.671Z,2.13
2023-05-17T07:03:35.865Z,2.13
2023-05-17T07:06:03.273Z,2.17
2023-05-17T07:08:30.260Z,2.20
2023-05-17T07:10:59.742Z,2.10
2023-05-17T07:13:26.575Z,2.10
2023-05-17T07:15:53.449Z,1.75
2023-05-17T07:18:20.628Z,2.50
2023-05-17T07:20:47.609Z,2.30
2023-05-17T07:23:14.553Z,2.40
2023-05-17T07:25:43.136Z,2.17
2023-05-17T07:28:10.041Z,1.90
2023-05-17T07:30:36.840Z,1.98
2023-05-17T07:33:03.800Z,2.30
2023-05-17T07:35:31.179Z,2.13
2023-05-17T07:38:00.398Z,2.15
2023-05-17T07:40:27.343Z,2.05
2023-05-17T07:42:54.264Z,1.98
2023-05-17T07:45:21.327Z,1.90
2023-05-17T07:47:48.366Z,2.50
2023-05-17T07:50:15.346Z,2.20
2023-05-17T07:52:42.186Z,2.25
2023-05-17T07:55:09.617Z,2.35
2023-05-17T07:57:38.491Z,2.45
2023-05-17T08:00:08.842Z,2.08
2023-05-17T08:02:39.683Z,2.22
2023-05-17T08:05:08.432Z,1.85
2023-05-17T08:07:35.436Z,1.60
2023-05-17T08:10:02.740Z,2.08
2023-05-17T08:12:29.576Z,1.92
2023-05-17T08:14:56.464Z,1.90
2023-05-17T08:17:23.534Z,1.70
2023-05-17T08:19:50.555Z,2.45
2023-05-17T08:22:17.464Z,2.38
2023-05-17T08:24:45.321Z,1.88
2023-05-17T08:27:12.196Z,2.28
2023-05-17T08:29:39.879Z,2.45
2023-05-17T08:32:07.159Z,1.88
2023-05-17T08:34:36.691Z,1.92
2023-05-17T08:37:03.778Z,1.73
2023-05-17T08:39:31.538Z,1.70
2023-05-17T08:41:59.732Z,2.15
2023-05-17T08:44:30.751Z,2.17
2023-05-17T08:46:59.127Z,2.00
2023-05-17T08:49:28.724Z,2.42
2023-05-17T08:51:59.323Z,2.33
2023-05-17T08:54:26.687Z,1.88
2023-05-17T08:56:58.576Z,1.70
2023-05-17T08:59:27.426Z,1.70
2023-05-17T09:01:54.887Z,1.80
2023-05-17T09:04:22.362Z,1.63
2023-05-17T09:06:50.652Z,1.63
2023-05-17T09:09:18.805Z,2.45
2023-05-17T09:11:45.698Z,1.98
2023-05-17T09:14:12.541Z,1.90
2023-05-17T09:16:39.357Z,1.73
2023-05-17T09:19:08.594Z,1.73
2023-05-17T09:21:36.861Z,1.33
2023-05-17T09:24:07.687Z,1.50
2023-05-17T09:26:41.909Z,2.00
2023-05-17T09:29:16.564Z,1.75
2023-05-17T09:31:44.662Z,1.67
2023-05-17T09:34:13.123Z,1.92
2023-05-17T09:36:43.942Z,1.85
2023-05-17T09:39:13.160Z,1.73
2023-05-17T09:41:47.914Z,1.45
2023-05-17T09:44:16.547Z,1.83
2023-05-17T09:46:48.707Z,1.90
2023-05-17T09:49:17.442Z,1.95
2023-05-17T09:51:46.981Z,1.63
2023-05-17T09:54:14.096Z,1.55
2023-05-17T09:56:41.148Z,2.25
2023-05-17T09:59:13.790Z,1.60
2023-05-17T10:01:42.050Z,1.75
2023-05-17T10:04:10.570Z,2.22
2023-05-17T10:06:48.146Z,1.63
2023-05-17T10:09:21.097Z,1.65
2023-05-17T10:11:48.620Z,1.80
2023-05-17T10:14:28.629Z,1.60
2023-05-17T10:16:56.379Z,1.92
2023-05-17T10:19:24.747Z,1.67
2023-05-17T10:21:53.875Z,1.42
2023-05-17T10:24:21.852Z,1.80
2023-05-17T10:26:52.044Z,1.58
2023-05-17T10:29:21.217Z,1.90
2023-05-17T10:31:51.227Z,1.70
2023-05-17T10:34:19.729Z,1.98
2023-05-17T10:36:48.918Z,2.10
2023-05-17T10:39:16.738Z,1.98
2023-05-17T10:41:45.891Z,1.67
2023-05-17T10:44:14.947Z,1.75
2023-05-17T10:46:52.541Z,1.83
2023-05-17T10:49:24.148Z,1.55
2023-05-17T10:51:51.748Z,2.08
2023-05-17T10:54:18.827Z,2.10
2023-05-17T10:56:53.715Z,2.10
2023-05-17T10:59:28.057Z,1.83
2023-05-17T11:02:06.187Z,1.83
2023-05-17T11:04:36.432Z,2.00
2023-05-17T11:07:28.047Z,1.67
2023-05-17T11:10:05.894Z,1.63
2023-05-17T11:12:40.864Z,2.10
2023-05-17T11:15:09.132Z,1.60
2023-05-17T11:17:37.698Z,1.50
2023-05-17T11:20:08.007Z,2.03
2023-05-17T11:23:14.926Z,1.70
2023-05-17T11:25:41.900Z,1.80
2023-05-17T11:28:22.239Z,1.92
2023-05-17T11:30:53.590Z,1.30
2023-05-17T11:33:32.759Z,1.75
2023-05-17T11:36:15.694Z,1.90
2023-05-17T11:38:42.588Z,2.00
2023-05-17T11:43:52.161Z,1.60
2023-05-17T11:46:21.089Z,1.77
2023-05-17T11:48:50.288Z,1.73
2023-05-17T11:51:17.949Z,1.55
2023-05-17T11:53:47.161Z,1.50
2023-05-17T11:56:15.119Z,2.05
2023-05-17T11:58:43.357Z,1.67
2023-05-17T12:01:10.657Z,1.60
2023-05-17T12:03:37.573Z,1.95
2023-05-17T12:06:09.451Z,1.42
2023-05-17T12:08:39.265Z,1.90
2023-05-17T12:11:07.589Z,1.67
2023-05-17T12:13:35.747Z,1.63
2023-05-17T12:16:11.271Z,1.80
2023-05-17T12:18:40.489Z,1.42
2023-05-17T12:21:09.132Z,1.73
2023-05-17T12:23:41.595Z,2.15
2023-05-17T12:26:16.142Z,1.85
2023-05-17T12:28:43.725Z,1.98
2023-05-17T12:31:17.951Z,2.00
2023-05-17T12:33:48.219Z,1.20
2023-05-17T12:36:16.881Z,1.70
2023-05-17T12:38:47.168Z,1.77
2023-05-17T12:41:16.505Z,1.40
2023-05-17T12:43:45.506Z,2.00
2023-05-17T12:46:14.345Z,1.70
2023-05-17T12:48:43.006Z,1.95
2023-05-17T12:51:12.679Z,1.60
2023-05-17T12:53:41.702Z,1.30
2023-05-17T12:56:14.366Z,1.90
2023-05-17T12:58:41.691Z,2.17
2023-05-17T13:01:10.766Z,1.67
2023-05-17T13:03:38.120Z,1.80
2023-05-17T13:06:07.885Z,1.40
2023-05-17T13:08:34.856Z,1.90
2023-05-17T13:11:10.127Z,1.88
2023-05-17T13:13:37.277Z,1.85
2023-05-17T13:16:04.308Z,1.65
2023-05-17T13:18:35.426Z,1.77
2023-05-17T13:21:02.927Z,1.17
2023-05-17T13:23:29.850Z,1.42
2023-05-17T13:25:56.670Z,1.98
2023-05-17T13:28:24.807Z,1.42
2023-05-17T13:30:52.550Z,1.60
2023-05-17T13:33:19.716Z,1.33
2023-05-17T13:35:47.633Z,1.40
2023-05-17T13:38:14.455Z,1.45
2023-05-17T13:40:41.349Z,1.55
2023-05-17T13:43:09.997Z,1.58
2023-05-17T13:45:36.945Z,1.27
2023-05-17T13:48:04.001Z,1.83
2023-05-17T13:50:31.303Z,1.65
2023-05-17T13:52:58.739Z,1.27
2023-05-17T13:55:25.742Z,1.35
2023-05-17T13:57:52.941Z,1.48
2023-05-17T14:00:20.531Z,1.33
2023-05-17T14:02:47.706Z,1.00
2023-05-17T14:05:15.440Z,1.50
2023-05-17T14:07:43.509Z,1.20
2023-05-17T14:10:12.618Z,1.00
2023-05-17T14:12:40.416Z,1.02
2023-05-17T14:15:09.003Z,1.10
2023-05-17T14:17:35.953Z,1.15
2023-05-17T14:20:04.196Z,1.10
2023-05-17T14:22:31.190Z,1.05
2023-05-17T14:24:58.072Z,1.40
2023-05-17T14:27:24.976Z,1.00
2023-05-17T14:29:51.958Z,1.15
2023-05-17T14:32:18.970Z,1.38
2023-05-17T14:34:46.002Z,0.95
2023-05-17T14:37:14.826Z,1.10
2023-05-17T14:39:42.624Z,0.90
2023-05-17T14:42:10.674Z,1.20
2023-05-17T14:44:39.680Z,1.45
2023-05-17T14:47:10.102Z,1.80
2023-05-17T14:49:36.919Z,1.30
2023-05-17T14:52:03.895Z,1.13
2023-05-17T14:54:32.867Z,1.13
2023-05-17T14:57:00.618Z,1.83
2023-05-17T14:59:27.623Z,1.10
2023-05-17T15:01:54.400Z,1.27
2023-05-17T15:04:21.612Z,1.58
2023-05-17T15:06:48.641Z,1.23
2023-05-17T15:09:18.289Z,1.35
2023-05-17T15:11:45.442Z,1.65
2023-05-17T15:14:12.511Z,1.20
2023-05-17T15:16:40.044Z,1.77
2023-05-17T15:19:08.023Z,1.30
2023-05-17T15:21:35.285Z,1.45
2023-05-17T15:24:02.600Z,1.20
2023-05-17T15:26:29.392Z,1.38
2023-05-17T15:28:56.200Z,1.08
2023-05-17T15:31:24.289Z,1.23
2023-05-17T15:33:51.714Z,1.33
2023-05-17T15:36:18.591Z,1.42
2023-05-17T15:38:45.487Z,1.17
2023-05-17T15:41:15.623Z,1.75
2023-05-17T15:43:42.639Z,1.20
2023-05-17T15:46:09.550Z,1.20
2023-05-17T15:48:36.687Z,1.50
2023-05-17T15:51:03.909Z,1.40
2023-05-17T15:53:31.330Z,1.25
2023-05-17T15:55:58.103Z,1.40
2023-05-17T15:58:27.846Z,1.27
2023-05-17T16:00:55.248Z,1.10
2023-05-17T16:03:22.087Z,1.33
2023-05-17T16:05:48.988Z,1.75
2023-05-17T16:08:16.480Z,1.33
2023-05-17T16:10:43.370Z,1.30
2023-05-17T16:13:10.159Z,1.80
2023-05-17T16:15:37.002Z,1.08
2023-05-17T16:18:03.940Z,1.10
2023-05-17T16:20:31.196Z,1.33
2023-05-17T16:22:58.054Z,1.42
2023-05-17T16:25:25.134Z,1.13
2023-05-17T16:27:51.981Z,1.13
2023-05-17T16:30:19.524Z,1.08
2023-05-17T16:32:47.925Z,1.35
2023-05-17T16:35:15.496Z,1.80
2023-05-17T16:37:43.467Z,1.85
2023-05-17T16:40:11.571Z,1.10
2023-05-17T16:42:38.626Z,1.40
2023-05-17T16:45:07.694Z,1.48
2023-05-17T16:47:34.921Z,1.10
2023-05-17T16:50:02.205Z,1.33
2023-05-17T16:52:30.265Z,1.35
2023-05-17T16:55:03.368Z,1.40
2023-05-17T16:57:31.826Z,1.20
2023-05-17T17:00:00.941Z,1.30
2023-05-17T17:02:28.405Z,1.20
2023-05-17T17:04:55.694Z,1.38
2023-05-17T17:07:22.505Z,0.73
2023-05-17T17:09:49.544Z,1.25
2023-05-17T17:12:24.132Z,1.58
2023-05-17T17:14:52.482Z,1.30
2023-05-17T17:17:19.275Z,1.15
2023-05-17T17:19:46.073Z,1.30
2023-05-17T17:22:14.723Z,1.48
2023-05-17T17:24:42.691Z,1.08
2023-05-17T17:27:09.504Z,1.20
2023-05-17T17:29:36.296Z,1.13
2023-05-17T17:32:03.160Z,1.10
2023-05-17T17:34:30.140Z,2.30
2023-05-17T17:36:57.911Z,1.00
2023-05-17T17:39:24.811Z,1.70
2023-05-17T17:41:51.636Z,1.50
2023-05-17T17:44:18.472Z,1.25
2023-05-17T17:46:45.493Z,1.05
2023-05-17T17:49:12.321Z,1.27
2023-05-17T17:51:39.121Z,1.30
2023-05-17T17:54:07.332Z,1.15
2023-05-17T17:56:34.280Z,1.30
2023-05-17T17:59:01.126Z,1.27
2023-05-17T18:01:29.552Z,1.30
2023-05-17T18:03:56.509Z,1.30
2023-05-17T18:06:23.900Z,1.20
2023-05-17T18:08:50.793Z,1.23
2023-05-17T18:11:17.756Z,1.70
2023-05-17T18:13:44.666Z,1.30
2023-05-17T18:16:11.542Z,1.27
2023-05-17T18:18:40.675Z,1.48
2023-05-17T18:21:08.852Z,1.30
2023-05-17T18:23:35.892Z,1.20
2023-05-17T18:26:03.219Z,1.98
2023-05-17T18:28:41.368Z,1.15
2023-05-17T18:31:09.572Z,1.55
2023-05-17T18:33:36.514Z,1.27
2023-05-17T18:36:03.617Z,1.23
2023-05-17T18:38:30.553Z,1.05
2023-05-17T18:40:57.404Z,1.15
2023-05-17T18:43:24.284Z,1.42
2023-05-17T18:45:51.414Z,1.70
2023-05-17T18:48:18.639Z,1.60
2023-05-17T18:50:45.720Z,1.17
2023-05-17T18:53:13.156Z,1.25
2023-05-17T18:55:41.229Z,1.23
2023-05-17T18:58:08.154Z,1.33
2023-05-17T19:00:35.353Z,1.23
2023-05-17T19:03:04.281Z,1.45
2023-05-17T19:05:31.383Z,1.08
2023-05-17T19:07:58.213Z,1.20
2023-05-17T19:10:25.087Z,1.58
2023-05-17T19:12:51.913Z,1.48
2023-05-17T19:15:19.537Z,0.93
2023-05-17T19:17:46.665Z,1.63
2023-05-17T19:20:13.674Z,1.35
2023-05-17T19:22:40.559Z,1.35
2023-05-17T19:25:08.016Z,1.15
2023-05-17T19:27:34.805Z,1.73
2023-05-17T19:30:01.666Z,1.50
2023-05-17T19:32:28.596Z,1.40
2023-05-17T19:34:55.448Z,1.50
2023-05-17T19:37:22.390Z,1.55
2023-05-17T19:39:49.242Z,1.13
2023-05-17T19:42:16.445Z,1.48
2023-05-17T19:44:43.280Z,1.92
2023-05-17T19:47:10.229Z,1.67
2023-05-17T19:49:37.183Z,1.13
2023-05-17T19:52:04.274Z,1.45
2023-05-17T19:54:31.271Z,1.65
2023-05-17T19:56:59.773Z,1.25
2023-05-17T19:59:26.620Z,1.60
2023-05-17T20:01:53.487Z,1.30
2023-05-17T20:04:20.560Z,1.45
2023-05-17T20:06:47.371Z,1.58
2023-05-17T20:09:14.251Z,1.33
2023-05-17T20:11:41.456Z,1.30
2023-05-17T20:14:09.649Z,1.30
2023-05-17T20:16:36.543Z,1.60
2023-05-17T20:19:03.606Z,1.40
2023-05-17T20:21:31.383Z,1.55
2023-05-17T20:24:03.465Z,1.42
2023-05-17T20:26:35.964Z,1.45
2023-05-17T20:29:07.702Z,1.60
2023-05-17T20:31:35.710Z,1.33
2023-05-17T20:34:03.344Z,1.27
2023-05-17T20:36:31.324Z,1.17
2023-05-17T20:38:58.366Z,1.38
2023-05-17T20:41:25.206Z,1.17
2023-05-17T20:43:52.545Z,1.23
2023-05-17T20:46:19.629Z,1.33
2023-05-17T20:48:48.061Z,1.33
2023-05-17T20:51:15.818Z,1.52
2023-05-17T20:53:42.764Z,1.65
2023-05-17T20:56:11.065Z,1.48
2023-05-17T20:58:38.050Z,1.30
2023-05-17T21:01:05.882Z,1.55
2023-05-17T21:03:35.633Z,1.45
2023-05-17T21:06:02.627Z,1.10
2023-05-17T21:08:29.607Z,1.20
2023-05-17T21:10:56.615Z,1.52
2023-05-17T21:13:25.788Z,1.35
2023-05-17T21:15:54.281Z,1.40
2023-05-17T21:18:21.366Z,1.60
2023-05-17T21:20:50.422Z,1.38
2023-05-17T21:23:17.801Z,1.50
2023-05-17T21:25:44.642Z,1.50
2023-05-17T21:28:11.542Z,1.23
2023-05-17T21:30:38.394Z,1.13
2023-05-17T21:33:05.709Z,1.13
2023-05-17T21:35:32.707Z,1.65
2023-05-17T21:37:59.516Z,1.10
2023-05-17T21:40:26.430Z,1.33
2023-05-17T21:42:53.320Z,1.45
2023-05-17T21:45:20.318Z,1.50
2023-05-17T21:47:47.234Z,1.60
2023-05-17T21:50:14.253Z,1.00
2023-05-17T21:52:41.055Z,1.45
2023-05-17T21:55:08.893Z,1.52
2023-05-17T21:57:36.632Z,1.20
2023-05-17T22:00:08.007Z,1.88
2023-05-17T22:02:35.900Z,1.25
2023-05-17T22:05:03.044Z,1.30
2023-05-17T22:07:30.011Z,1.30
2023-05-17T22:09:58.299Z,1.42
2023-05-17T22:12:26.212Z,1.38
2023-05-17T22:14:54.203Z,1.73
2023-05-17T22:17:29.510Z,1.20
2023-05-17T22:20:07.872Z,1.40
2023-05-17T22:22:34.668Z,1.60
2023-05-17T22:25:01.591Z,2.28
2023-05-17T22:27:28.470Z,2.33
2023-05-17T22:29:55.263Z,2.20
2023-05-17T22:32:22.819Z,0.77
2023-05-17T22:34:50.492Z,1.23
2023-05-17T22:37:17.661Z,1.48
2023-05-17T22:39:44.475Z,1.60
2023-05-17T22:42:11.306Z,1.70
2023-05-17T22:44:38.203Z,1.25
2023-05-17T22:47:05.774Z,1.88
2023-05-17T22:49:36.046Z,1.13
2023-05-17T22:52:07.818Z,1.33
2023-05-17T22:54:36.272Z,1.33
2023-05-17T22:57:04.389Z,1.60
2023-05-17T22:59:32.855Z,1.23
2023-05-17T23:02:00.263Z,1.48
2023-05-17T23:04:30.034Z,1.20
2023-05-17T23:07:03.833Z,1.40
2023-05-17T23:09:31.040Z,1.38
2023-05-17T23:12:00.344Z,1.27
2023-05-17T23:14:27.464Z,1.33
2023-05-17T23:16:54.416Z,1.50
2023-05-17T23:19:23.517Z,1.50
2023-05-17T23:21:50.649Z,1.50
2023-05-17T23:24:17.653Z,1.38
2023-05-17T23:26:44.468Z,2.13
2023-05-17T23:29:12.590Z,1.40
2023-05-17T23:31:41.055Z,1.65
2023-05-17T23:34:07.974Z,1.67
2023-05-17T23:36:34.813Z,1.65
2023-05-17T23:48:11.768Z,1.30
2023-05-17T23:50:39.436Z,1.65
2023-05-17T23:53:06.262Z,1.20
2023-05-17T23:55:33.453Z,1.45
2023-05-17T23:58:00.272Z,1.50
